createdAt,value
2022-12-05T00:00:02.045Z,4.97
2022-12-05T00:00:37.221Z,4.70
2022-12-05T00:01:17.337Z,4.63
2022-12-05T00:01:49.574Z,5.00
2022-12-05T00:02:21.971Z,4.67
2022-12-05T00:02:56.853Z,4.40
2022-12-05T00:03:29.068Z,4.70
2022-12-05T00:04:04.575Z,4.67
2022-12-05T00:04:42.104Z,4.33
2022-12-05T00:05:14.612Z,4.47
2022-12-05T00:05:46.834Z,4.93
2022-12-05T00:06:22.409Z,4.80
2022-12-05T00:06:54.633Z,5.43
2022-12-05T00:07:26.903Z,5.20
2022-12-05T00:08:01.851Z,4.47
2022-12-05T00:08:34.213Z,4.10
2022-12-05T00:09:08.004Z,4.90
2022-12-05T00:09:42.821Z,4.50
2022-12-05T00:10:15.528Z,4.90
2022-12-05T00:10:47.774Z,4.60
2022-12-05T00:11:24.644Z,4.77
2022-12-05T00:11:57.822Z,5.53
2022-12-05T00:12:30.171Z,4.73
2022-12-05T00:13:05.108Z,4.90
2022-12-05T00:13:37.324Z,4.90
2022-12-05T00:14:10.403Z,4.93
2022-12-05T00:14:45.218Z,4.80
2022-12-05T00:15:17.593Z,4.90
2022-12-05T00:15:49.938Z,5.40
2022-12-05T00:16:26.783Z,5.30
2022-12-05T00:16:59.138Z,5.47
2022-12-05T00:17:32.151Z,4.40
2022-12-05T00:18:07.461Z,5.10
2022-12-05T00:18:40.137Z,5.07
2022-12-05T00:19:13.774Z,5.30
2022-12-05T00:19:56.590Z,5.10
2022-12-05T00:20:29.196Z,5.03
2022-12-05T00:21:01.413Z,5.23
2022-12-05T00:21:38.424Z,5.47
2022-12-05T00:22:10.631Z,5.10
2022-12-05T00:22:45.461Z,5.70
2022-12-05T00:23:17.666Z,5.23
2022-12-05T00:23:49.957Z,5.30
2022-12-05T00:24:24.819Z,5.47
2022-12-05T00:24:57.031Z,5.20
2022-12-05T00:25:29.388Z,5.40
2022-12-05T00:26:05.483Z,5.70
2022-12-05T00:26:37.702Z,5.80
2022-12-05T00:27:12.569Z,5.27
2022-12-05T00:27:44.785Z,5.47
2022-12-05T00:28:16.995Z,5.30
2022-12-05T00:28:52.452Z,5.63
2022-12-05T00:29:24.721Z,5.90
2022-12-05T00:29:57.211Z,4.70
2022-12-05T00:30:32.267Z,5.00
2022-12-05T00:31:04.949Z,5.57
2022-12-05T00:31:37.229Z,6.13
2022-12-05T00:32:12.127Z,5.27
2022-12-05T00:32:44.355Z,5.77
2022-12-05T00:33:16.665Z,5.30
2022-12-05T00:33:52.157Z,5.07
2022-12-05T00:34:24.597Z,5.70
2022-12-05T00:34:59.421Z,6.07
2022-12-05T00:35:36.332Z,5.03
2022-12-05T00:36:10.927Z,6.00
2022-12-05T00:36:43.138Z,5.83
2022-12-05T00:37:18.012Z,5.68
2022-12-05T00:37:50.280Z,5.73
2022-12-05T00:38:22.498Z,5.60
2022-12-05T00:38:58.166Z,6.03
2022-12-05T00:39:30.429Z,6.35
2022-12-05T00:40:02.640Z,5.23
2022-12-05T00:40:38.341Z,5.70
2022-12-05T00:41:12.854Z,5.80
2022-12-05T00:41:45.076Z,6.53
2022-12-05T00:42:19.877Z,6.67
2022-12-05T00:42:52.586Z,6.00
2022-12-05T00:43:24.888Z,5.70
2022-12-05T00:44:02.393Z,6.03
2022-12-05T00:44:34.642Z,5.90
2022-12-05T00:45:07.976Z,6.40
2022-12-05T00:45:42.847Z,6.07
2022-12-05T00:46:16.628Z,6.20
2022-12-05T00:46:51.543Z,6.07
2022-12-05T00:47:23.747Z,5.73
2022-12-05T00:47:55.960Z,6.83
2022-12-05T00:48:28.195Z,5.77
2022-12-05T00:49:04.296Z,5.97
2022-12-05T00:49:36.560Z,5.90
2022-12-05T00:50:11.821Z,5.97
2022-12-05T00:50:46.661Z,6.43
2022-12-05T00:51:21.029Z,6.30
2022-12-05T00:51:53.467Z,6.00
2022-12-05T00:52:28.317Z,5.30
2022-12-05T00:53:00.531Z,6.07
2022-12-05T00:53:32.857Z,5.77
2022-12-05T00:54:09.336Z,5.50
2022-12-05T00:54:41.584Z,6.10
2022-12-05T00:55:13.780Z,5.50
2022-12-05T00:55:48.585Z,6.13
2022-12-05T00:56:21.967Z,5.50
2022-12-05T00:56:57.221Z,5.73
2022-12-05T00:57:29.463Z,6.00
2022-12-05T00:58:01.681Z,6.40
2022-12-05T00:58:36.723Z,5.68
2022-12-05T00:59:10.431Z,5.97
2022-12-05T00:59:45.295Z,6.63
2022-12-05T01:00:18.754Z,6.40
2022-12-05T01:00:51.485Z,6.03
2022-12-05T01:01:30.206Z,5.93
2022-12-05T01:02:02.487Z,5.63
2022-12-05T01:02:34.760Z,6.40
2022-12-05T01:03:09.603Z,6.13
2022-12-05T01:03:42.344Z,5.90
2022-12-05T01:04:16.519Z,5.55
2022-12-05T01:04:51.380Z,5.70
2022-12-05T01:05:26.207Z,6.03
2022-12-05T01:05:59.576Z,5.60
2022-12-05T01:06:31.833Z,6.00
2022-12-05T01:07:06.693Z,5.63
2022-12-05T01:07:39.012Z,5.73
2022-12-05T01:08:11.875Z,6.73
2022-12-05T01:08:47.128Z,5.90
2022-12-05T01:09:20.466Z,6.23
2022-12-05T01:09:55.776Z,5.67
2022-12-05T01:10:28.249Z,5.67
2022-12-05T01:11:00.469Z,5.73
2022-12-05T01:11:41.069Z,5.70
2022-12-05T01:12:13.734Z,5.78
2022-12-05T01:12:45.939Z,5.78
2022-12-05T01:13:20.753Z,6.33
2022-12-05T01:13:53.501Z,6.43
2022-12-05T01:14:27.173Z,6.90
2022-12-05T01:15:02.038Z,6.37
2022-12-05T01:15:37.157Z,6.23
2022-12-05T01:16:14.827Z,6.67
2022-12-05T01:16:51.123Z,6.63
2022-12-05T01:17:23.405Z,6.63
2022-12-05T01:17:55.628Z,6.30
2022-12-05T01:18:30.835Z,6.30
2022-12-05T01:19:05.490Z,6.67
2022-12-05T01:19:40.335Z,6.23
2022-12-05T01:20:12.840Z,6.07
2022-12-05T01:20:48.392Z,6.63
2022-12-05T01:21:23.645Z,6.60
2022-12-05T01:21:56.399Z,6.03
2022-12-05T01:22:28.673Z,6.67
2022-12-05T01:23:00.906Z,6.20
2022-12-05T01:23:35.747Z,6.97
2022-12-05T01:24:08.695Z,6.30
2022-12-05T01:24:40.942Z,6.90
2022-12-05T01:25:15.763Z,6.67
2022-12-05T01:25:50.029Z,6.50
2022-12-05T01:26:22.871Z,5.60
2022-12-05T01:26:58.016Z,6.30
2022-12-05T01:27:30.256Z,5.93
2022-12-05T01:28:02.468Z,6.13
2022-12-05T01:28:37.393Z,6.00
2022-12-05T01:29:10.140Z,6.10
2022-12-05T01:29:45.031Z,6.50
2022-12-05T01:30:17.381Z,5.72
2022-12-05T01:30:50.240Z,6.30
2022-12-05T01:31:28.437Z,6.20
2022-12-05T01:32:00.800Z,5.82
2022-12-05T01:32:33.662Z,6.20
2022-12-05T01:33:08.671Z,5.70
2022-12-05T01:33:40.893Z,6.50
2022-12-05T01:34:15.104Z,6.20
2022-12-05T01:34:50.058Z,5.97
2022-12-05T01:35:22.255Z,6.57
2022-12-05T01:35:57.064Z,6.83
2022-12-05T01:36:32.325Z,6.20
2022-12-05T01:37:04.573Z,6.10
2022-12-05T01:37:36.796Z,5.80
2022-12-05T01:38:12.920Z,6.37
2022-12-05T01:38:45.302Z,5.90
2022-12-05T01:39:17.534Z,5.50
2022-12-05T01:39:52.403Z,5.43
2022-12-05T01:40:24.622Z,4.90
2022-12-05T01:41:01.659Z,5.30
2022-12-05T01:41:38.334Z,4.80
2022-12-05T01:42:12.081Z,5.57
2022-12-05T01:42:44.561Z,5.17
2022-12-05T01:43:20.729Z,5.80
2022-12-05T01:43:58.555Z,5.70
2022-12-05T01:45:08.407Z,5.20
2022-12-05T01:45:42.081Z,6.40
2022-12-05T01:46:14.400Z,6.10
2022-12-05T01:46:51.247Z,5.45
2022-12-05T01:47:25.719Z,5.30
2022-12-05T01:47:58.284Z,6.10
2022-12-05T01:48:36.295Z,5.47
2022-12-05T01:49:11.068Z,5.50
2022-12-05T01:49:43.320Z,6.07
2022-12-05T01:50:18.175Z,5.47
2022-12-05T01:50:51.055Z,5.40
2022-12-05T01:51:26.287Z,5.67
2022-12-05T01:52:03.481Z,5.50
2022-12-05T01:52:35.754Z,6.27
2022-12-05T01:53:08.016Z,5.70
2022-12-05T01:53:42.841Z,5.67
2022-12-05T01:54:17.232Z,5.90
2022-12-05T01:54:51.484Z,5.63
2022-12-05T01:55:26.415Z,6.30
2022-12-05T01:55:58.647Z,5.57
2022-12-05T01:56:32.988Z,5.97
2022-12-05T01:57:10.521Z,5.50
2022-12-05T01:57:42.874Z,5.90
2022-12-05T01:58:18.482Z,5.77
2022-12-05T01:58:52.264Z,5.40
2022-12-05T01:59:25.384Z,5.40
2022-12-05T02:00:02.979Z,5.50
2022-12-05T02:00:44.553Z,5.20
2022-12-05T02:01:18.405Z,5.87
2022-12-05T02:01:53.505Z,5.70
2022-12-05T02:02:25.857Z,5.68
2022-12-05T02:03:00.980Z,5.63
2022-12-05T02:03:35.827Z,5.23
2022-12-05T02:04:09.197Z,5.63
2022-12-05T02:04:46.107Z,5.40
2022-12-05T02:05:23.516Z,5.87
2022-12-05T02:05:57.530Z,5.95
2022-12-05T02:06:32.939Z,5.70
2022-12-05T02:07:07.823Z,5.82
2022-12-05T02:07:41.336Z,6.20
2022-12-05T02:08:13.735Z,6.27
2022-12-05T02:08:49.988Z,6.40
2022-12-05T02:09:22.637Z,5.60
2022-12-05T02:09:54.998Z,5.80
2022-12-05T02:10:28.748Z,5.73
2022-12-05T02:11:03.638Z,6.07
2022-12-05T02:11:44.033Z,5.73
2022-12-05T02:12:16.262Z,6.20
2022-12-05T02:12:53.072Z,5.47
2022-12-05T02:13:36.504Z,5.53
2022-12-05T02:14:21.159Z,6.40
2022-12-05T02:15:06.741Z,6.67
2022-12-05T02:15:43.160Z,5.50
2022-12-05T02:16:23.324Z,6.10
2022-12-05T02:17:03.101Z,5.95
2022-12-05T02:17:42.915Z,5.67
2022-12-05T02:18:26.042Z,6.50
2022-12-05T02:19:11.563Z,6.60
2022-12-05T02:19:55.651Z,6.37
2022-12-05T02:20:41.995Z,6.40
2022-12-05T02:21:41.357Z,4.90
2022-12-05T02:22:44.292Z,6.23
2022-12-05T02:23:32.462Z,5.80
2022-12-05T02:24:26.764Z,6.10
2022-12-05T02:25:26.031Z,6.40
2022-12-05T02:26:19.253Z,6.50
2022-12-05T02:27:03.409Z,6.00
2022-12-05T02:27:57.109Z,6.07
2022-12-05T02:28:44.618Z,6.03
2022-12-05T02:30:00.262Z,5.77
2022-12-05T02:30:37.303Z,5.35
2022-12-05T02:31:11.741Z,5.72
2022-12-05T02:31:50.676Z,5.75
2022-12-05T02:32:41.196Z,5.60
2022-12-05T02:33:19.995Z,5.80
2022-12-05T02:33:59.056Z,5.72
2022-12-05T02:34:36.372Z,5.60
2022-12-05T02:35:14.463Z,5.93
2022-12-05T02:35:54.364Z,5.05
2022-12-05T02:36:36.748Z,6.03
2022-12-05T02:37:13.696Z,5.45
2022-12-05T02:37:55.237Z,5.05
2022-12-05T02:38:30.478Z,5.50
2022-12-05T02:39:05.280Z,5.97
2022-12-05T02:39:44.858Z,5.63
2022-12-05T02:40:23.801Z,5.60
2022-12-05T02:41:08.291Z,5.40
2022-12-05T02:41:44.397Z,6.03
2022-12-05T02:42:21.118Z,5.68
2022-12-05T02:43:02.408Z,5.07
2022-12-05T02:43:38.492Z,5.95
2022-12-05T02:44:15.483Z,5.83
2022-12-05T02:44:52.511Z,4.60
2022-12-05T02:45:29.461Z,5.30
2022-12-05T02:46:06.013Z,5.30
2022-12-05T02:46:43.268Z,5.30
2022-12-05T02:47:18.017Z,5.20
2022-12-05T02:47:52.550Z,5.17
2022-12-05T02:48:31.412Z,5.00
2022-12-05T02:49:05.987Z,4.80
2022-12-05T02:49:38.254Z,5.20
2022-12-05T02:50:15.668Z,5.43
2022-12-05T02:50:49.097Z,5.20
2022-12-05T02:51:26.707Z,5.10
2022-12-05T02:52:00.495Z,6.10
2022-12-05T02:52:34.339Z,5.40
2022-12-05T02:53:09.660Z,5.30
2022-12-05T02:53:45.493Z,5.47
2022-12-05T02:54:20.143Z,5.30
2022-12-05T02:54:54.419Z,5.22
2022-12-05T02:55:27.469Z,5.55
2022-12-05T02:56:02.654Z,5.77
2022-12-05T02:56:36.313Z,5.40
2022-12-05T02:57:09.567Z,5.10
2022-12-05T02:57:43.485Z,5.70
2022-12-05T02:58:21.614Z,5.38
2022-12-05T02:58:55.777Z,5.43
2022-12-05T02:59:28.228Z,4.97
2022-12-05T03:00:03.079Z,5.60
2022-12-05T03:00:39.539Z,5.40
2022-12-05T03:01:12.032Z,5.75
2022-12-05T03:01:49.897Z,5.23
2022-12-05T03:02:24.449Z,5.20
2022-12-05T03:02:58.516Z,5.35
2022-12-05T03:03:33.757Z,6.20
2022-12-05T03:04:07.925Z,4.90
2022-12-05T03:04:40.178Z,5.43
2022-12-05T03:05:20.963Z,6.10
2022-12-05T03:05:59.479Z,6.05
2022-12-05T03:06:34.075Z,5.28
2022-12-05T03:07:12.438Z,5.25
2022-12-05T03:07:47.347Z,5.00
2022-12-05T03:08:23.673Z,4.90
2022-12-05T03:09:01.387Z,5.10
2022-12-05T03:09:35.683Z,5.50
2022-12-05T03:10:09.360Z,5.60
2022-12-05T03:10:45.109Z,5.60
2022-12-05T03:11:17.411Z,5.05
2022-12-05T03:11:52.304Z,5.53
2022-12-05T03:12:30.998Z,5.00
2022-12-05T03:13:07.604Z,5.60
2022-12-05T03:13:42.329Z,5.80
2022-12-05T03:14:22.875Z,5.50
2022-12-05T03:14:57.280Z,5.97
2022-12-05T03:15:32.638Z,5.07
2022-12-05T03:16:13.915Z,5.60
2022-12-05T03:16:50.279Z,5.10
2022-12-05T03:17:24.637Z,5.80
2022-12-05T03:18:04.679Z,5.82
2022-12-05T03:18:39.265Z,5.30
2022-12-05T03:19:13.091Z,5.07
2022-12-05T03:19:52.868Z,5.25
2022-12-05T03:20:28.728Z,5.88
2022-12-05T03:21:04.221Z,5.50
2022-12-05T03:21:42.166Z,5.55
2022-12-05T03:22:18.678Z,6.22
2022-12-05T03:22:54.996Z,5.10
2022-12-05T03:23:33.882Z,4.93
2022-12-05T03:24:08.968Z,5.80
2022-12-05T03:24:41.333Z,5.65
2022-12-05T03:25:14.200Z,5.43
2022-12-05T03:25:55.139Z,5.95
2022-12-05T03:26:37.121Z,5.40
2022-12-05T03:27:15.529Z,5.77
2022-12-05T03:27:52.688Z,5.80
2022-12-05T03:28:31.259Z,5.65
2022-12-05T03:29:14.331Z,5.55
2022-12-05T03:29:53.307Z,5.50
2022-12-05T03:30:25.663Z,5.38
2022-12-05T03:31:04.428Z,5.68
2022-12-05T03:31:48.732Z,5.90
2022-12-05T03:32:23.860Z,6.00
2022-12-05T03:32:59.969Z,5.70
2022-12-05T03:33:39.140Z,5.25
2022-12-05T03:34:16.344Z,5.63
2022-12-05T03:34:59.547Z,5.90
2022-12-05T03:35:37.258Z,5.10
2022-12-05T03:36:12.947Z,5.95
2022-12-05T03:36:51.620Z,5.50
2022-12-05T03:37:28.893Z,6.20
2022-12-05T03:38:05.449Z,5.50
2022-12-05T03:38:45.392Z,5.93
2022-12-05T03:39:21.596Z,5.87
2022-12-05T03:40:00.584Z,5.10
2022-12-05T03:40:39.512Z,5.47
2022-12-05T03:41:16.865Z,5.90
2022-12-05T03:41:55.448Z,5.67
2022-12-05T03:42:33.709Z,5.10
2022-12-05T03:43:10.724Z,5.57
2022-12-05T03:43:50.383Z,5.20
2022-12-05T03:44:28.824Z,5.50
2022-12-05T03:45:05.325Z,5.70
2022-12-05T03:45:40.288Z,6.27
2022-12-05T03:46:19.291Z,6.30
2022-12-05T03:46:56.737Z,5.83
2022-12-05T03:47:34.239Z,5.23
2022-12-05T03:48:13.917Z,5.40
2022-12-05T03:48:50.837Z,5.80
2022-12-05T03:49:30.590Z,6.20
2022-12-05T03:50:12.611Z,5.83
2022-12-05T03:50:47.748Z,5.50
2022-12-05T03:51:21.330Z,5.83
2022-12-05T03:51:58.917Z,5.80
2022-12-05T03:52:51.027Z,5.80
2022-12-05T03:53:32.436Z,5.63
2022-12-05T03:54:07.229Z,5.80
2022-12-05T03:54:41.856Z,6.10
2022-12-05T03:55:14.849Z,5.70
2022-12-05T03:55:50.428Z,5.67
2022-12-05T03:56:25.581Z,5.90
2022-12-05T03:57:00.920Z,5.40
2022-12-05T03:57:38.826Z,5.97
2022-12-05T03:58:15.738Z,5.67
2022-12-05T03:58:51.521Z,5.30
2022-12-05T03:59:31.752Z,5.90
2022-12-05T04:00:06.922Z,6.33
2022-12-05T04:00:43.369Z,6.10
2022-12-05T04:01:19.488Z,5.63
2022-12-05T04:01:55.838Z,5.73
2022-12-05T04:02:31.255Z,5.73
2022-12-05T04:03:10.277Z,5.47
2022-12-05T04:03:45.133Z,6.37
2022-12-05T04:04:19.334Z,5.97
2022-12-05T04:04:56.160Z,6.30
2022-12-05T04:05:31.433Z,6.10
2022-12-05T04:06:05.253Z,6.03
2022-12-05T04:06:41.772Z,6.13
2022-12-05T04:07:15.083Z,5.97
2022-12-05T04:07:50.546Z,6.27
2022-12-05T04:08:29.081Z,5.60
2022-12-05T04:09:03.771Z,5.93
2022-12-05T04:09:39.664Z,5.80
2022-12-05T04:10:17.351Z,6.03
2022-12-05T04:10:51.897Z,6.03
2022-12-05T04:11:28.604Z,6.07
2022-12-05T04:12:03.549Z,6.07
2022-12-05T04:12:36.640Z,5.50
2022-12-05T04:13:20.513Z,6.37
2022-12-05T04:13:54.125Z,5.97
2022-12-05T04:14:29.259Z,6.33
2022-12-05T04:15:05.312Z,6.07
2022-12-05T04:15:52.647Z,5.67
2022-12-05T04:16:42.120Z,5.80
2022-12-05T04:17:24.853Z,5.70
2022-12-05T04:17:58.790Z,5.87
2022-12-05T04:18:31.874Z,5.83
2022-12-05T04:19:10.477Z,6.57
2022-12-05T04:20:01.344Z,5.83
2022-12-05T04:20:51.774Z,5.83
2022-12-05T04:21:40.941Z,6.00
2022-12-05T04:22:13.178Z,6.13
2022-12-05T04:22:45.885Z,5.73
2022-12-05T04:23:18.269Z,6.33
2022-12-05T04:24:14.459Z,5.50
2022-12-05T04:25:02.062Z,6.30
2022-12-05T04:25:49.747Z,5.73
2022-12-05T04:26:24.810Z,5.50
2022-12-05T04:27:06.556Z,6.20
2022-12-05T04:27:44.981Z,6.27
2022-12-05T04:28:25.743Z,6.33
2022-12-05T04:29:02.024Z,6.90
2022-12-05T04:29:41.555Z,6.80
2022-12-05T04:30:16.823Z,6.03
2022-12-05T04:30:52.896Z,5.73
2022-12-05T04:31:29.685Z,6.53
2022-12-05T04:32:07.120Z,6.77
2022-12-05T04:32:46.483Z,6.10
2022-12-05T04:33:28.972Z,6.33
2022-12-05T04:34:05.357Z,6.00
2022-12-05T04:34:38.332Z,6.30
2022-12-05T04:35:17.152Z,6.23
2022-12-05T04:35:54.236Z,5.47
2022-12-05T04:36:32.029Z,6.10
2022-12-05T04:37:09.740Z,6.00
2022-12-05T04:37:45.528Z,6.07
2022-12-05T04:38:21.835Z,5.90
2022-12-05T04:38:58.985Z,5.97
2022-12-05T04:39:36.809Z,6.73
2022-12-05T04:40:13.754Z,6.40
2022-12-05T04:40:54.011Z,5.83
2022-12-05T04:41:29.382Z,6.40
2022-12-05T04:42:03.976Z,5.83
2022-12-05T04:42:39.916Z,6.20
2022-12-05T04:43:12.506Z,6.87
2022-12-05T04:43:48.871Z,6.07
2022-12-05T04:44:24.088Z,6.43
2022-12-05T04:45:00.327Z,6.17
2022-12-05T04:45:35.872Z,6.03
2022-12-05T04:46:10.385Z,6.00
2022-12-05T04:46:44.549Z,6.80
2022-12-05T04:47:19.188Z,6.00
2022-12-05T04:48:00.328Z,6.10
2022-12-05T04:48:33.688Z,6.17
2022-12-05T04:49:08.821Z,6.70
2022-12-05T04:49:47.965Z,6.87
2022-12-05T04:50:24.926Z,5.77
2022-12-05T04:50:57.590Z,6.50
2022-12-05T04:51:34.349Z,5.90
2022-12-05T04:52:09.296Z,5.33
2022-12-05T04:52:42.167Z,6.00
2022-12-05T04:53:17.648Z,5.60
2022-12-05T04:53:53.879Z,6.87
2022-12-05T04:54:29.737Z,5.60
2022-12-05T04:55:09.207Z,5.90
2022-12-05T04:55:45.414Z,6.20
2022-12-05T04:56:19.540Z,6.03
2022-12-05T04:57:01.166Z,6.60
2022-12-05T04:57:36.114Z,6.20
2022-12-05T04:58:13.285Z,5.90
2022-12-05T04:58:45.760Z,6.53
2022-12-05T04:59:18.056Z,5.57
2022-12-05T04:59:53.114Z,6.90
2022-12-05T05:00:25.360Z,6.70
2022-12-05T05:01:03.304Z,5.70
2022-12-05T05:01:42.144Z,6.63
2022-12-05T05:02:18.729Z,6.07
2022-12-05T05:02:56.636Z,6.00
2022-12-05T05:03:34.690Z,5.80
2022-12-05T05:04:10.066Z,6.67
2022-12-05T05:04:44.235Z,6.17
2022-12-05T05:05:21.249Z,6.70
2022-12-05T05:05:55.473Z,5.83
2022-12-05T05:06:30.809Z,6.30
2022-12-05T05:07:06.745Z,5.90
2022-12-05T05:07:47.661Z,5.97
2022-12-05T05:08:21.568Z,5.67
2022-12-05T05:08:55.385Z,6.13
2022-12-05T05:09:27.592Z,6.17
2022-12-05T05:10:02.438Z,6.40
2022-12-05T05:10:38.541Z,6.60
2022-12-05T05:11:16.510Z,6.37
2022-12-05T05:11:48.887Z,6.57
2022-12-05T05:12:23.701Z,6.60
2022-12-05T05:12:56.364Z,6.00
2022-12-05T05:13:28.580Z,6.83
2022-12-05T05:14:03.899Z,5.63
2022-12-05T05:14:36.353Z,6.00
2022-12-05T05:15:09.504Z,8.27
2022-12-05T05:15:41.756Z,7.07
2022-12-05T05:16:20.701Z,6.20
2022-12-05T05:16:53.028Z,7.17
2022-12-05T05:17:25.256Z,9.07
2022-12-05T05:18:02.658Z,7.90
2022-12-05T05:18:34.935Z,7.47
2022-12-05T05:19:08.187Z,7.40
2022-12-05T05:19:43.012Z,7.80
2022-12-05T05:20:24.469Z,7.93
2022-12-05T05:20:56.705Z,7.60
2022-12-05T05:21:33.004Z,8.70
2022-12-05T05:22:05.213Z,9.10
2022-12-05T05:22:37.434Z,9.60
2022-12-05T05:23:12.257Z,9.60
2022-12-05T05:23:44.467Z,13.23
2022-12-05T05:24:16.689Z,10.57
2022-12-05T05:24:48.904Z,13.53
2022-12-05T05:25:24.113Z,12.30
2022-12-05T05:25:56.932Z,11.73
2022-12-05T05:26:32.920Z,10.23
2022-12-05T05:27:05.132Z,11.17
2022-12-05T05:27:37.401Z,8.00
2022-12-05T05:28:12.212Z,10.17
2022-12-05T05:28:44.585Z,10.07
2022-12-05T05:29:17.220Z,8.90
2022-12-05T05:29:52.028Z,8.33
2022-12-05T05:30:25.514Z,7.80
2022-12-05T05:31:05.210Z,8.73
2022-12-05T05:31:38.140Z,8.30
2022-12-05T05:32:10.399Z,8.80
2022-12-05T05:32:45.232Z,11.17
2022-12-05T05:33:20.113Z,11.47
2022-12-05T05:33:56.711Z,8.90
2022-12-05T05:34:28.917Z,8.60
2022-12-05T05:35:01.200Z,8.10
2022-12-05T05:35:39.005Z,7.83
2022-12-05T05:36:12.876Z,7.47
2022-12-05T05:36:45.175Z,6.50
2022-12-05T05:37:19.976Z,6.70
2022-12-05T05:37:52.202Z,6.80
2022-12-05T05:38:24.446Z,6.97
2022-12-05T05:39:00.801Z,6.70
2022-12-05T05:39:33.061Z,6.40
2022-12-05T05:40:10.948Z,7.13
2022-12-05T05:40:46.074Z,5.70
2022-12-05T05:41:19.969Z,6.47
2022-12-05T05:41:52.176Z,6.50
2022-12-05T05:42:26.988Z,6.53
2022-12-05T05:42:59.195Z,6.27
2022-12-05T05:43:31.497Z,6.97
2022-12-05T05:44:06.950Z,6.37
2022-12-05T05:44:39.180Z,5.80
2022-12-05T05:45:12.584Z,5.67
2022-12-05T05:45:47.393Z,6.40
2022-12-05T05:46:21.982Z,5.67
2022-12-05T05:46:56.940Z,6.63
2022-12-05T05:47:29.205Z,5.80
2022-12-05T05:48:01.428Z,6.30
2022-12-05T05:48:38.941Z,5.87
2022-12-05T05:49:11.269Z,5.90
2022-12-05T05:49:43.516Z,6.00
2022-12-05T05:50:21.773Z,6.13
2022-12-05T05:50:54.368Z,5.87
2022-12-05T05:51:29.291Z,6.27
2022-12-05T05:52:04.137Z,6.53
2022-12-05T05:52:37.196Z,6.27
2022-12-05T05:53:12.064Z,6.03
2022-12-05T05:53:44.548Z,6.53
2022-12-05T05:54:16.831Z,5.67
2022-12-05T05:54:51.664Z,6.20
2022-12-05T05:55:23.878Z,6.27
2022-12-05T05:55:56.118Z,6.13
2022-12-05T05:56:31.949Z,6.23
2022-12-05T05:57:04.355Z,6.37
2022-12-05T05:57:36.950Z,6.40
2022-12-05T05:58:12.441Z,6.23
2022-12-05T05:58:44.768Z,6.47
2022-12-05T05:59:17.005Z,5.90
2022-12-05T05:59:51.860Z,5.77
2022-12-05T06:00:24.404Z,6.40
2022-12-05T06:01:06.082Z,6.07
2022-12-05T06:01:38.327Z,6.03
2022-12-05T06:02:10.540Z,6.00
2022-12-05T06:02:45.505Z,6.73
2022-12-05T06:03:17.892Z,7.67
2022-12-05T06:03:53.123Z,6.50
2022-12-05T06:04:28.245Z,6.40
2022-12-05T06:05:00.570Z,6.43
2022-12-05T06:05:32.812Z,6.40
2022-12-05T06:06:10.454Z,6.50
2022-12-05T06:06:42.659Z,6.50
2022-12-05T06:07:14.871Z,6.97
2022-12-05T06:07:49.742Z,7.50
2022-12-05T06:08:22.083Z,7.80
2022-12-05T06:08:54.918Z,7.80
2022-12-05T06:09:29.780Z,7.17
2022-12-05T06:10:02.240Z,7.00
2022-12-05T06:10:34.600Z,6.80
2022-12-05T06:11:10.258Z,7.10
2022-12-05T06:11:42.469Z,7.27
2022-12-05T06:12:14.663Z,6.93
2022-12-05T06:12:49.468Z,6.90
2022-12-05T06:13:21.696Z,6.70
2022-12-05T06:13:53.951Z,6.83
2022-12-05T06:14:28.793Z,7.00
2022-12-05T06:15:01.092Z,6.83
2022-12-05T06:15:35.908Z,7.20
2022-12-05T06:16:10.038Z,7.10
2022-12-05T06:16:42.370Z,6.77
2022-12-05T06:17:17.671Z,6.70
2022-12-05T06:17:49.896Z,7.57
2022-12-05T06:18:22.096Z,7.40
2022-12-05T06:18:59.751Z,7.57
2022-12-05T06:19:31.951Z,8.27
2022-12-05T06:20:05.071Z,6.73
2022-12-05T06:20:39.906Z,7.50
2022-12-05T06:21:16.148Z,7.20
2022-12-05T06:21:49.870Z,7.13
2022-12-05T06:22:24.740Z,6.97
2022-12-05T06:22:57.055Z,7.90
2022-12-05T06:23:29.269Z,7.93
2022-12-05T06:24:04.129Z,7.43
2022-12-05T06:24:36.388Z,6.80
2022-12-05T06:25:12.272Z,6.25
2022-12-05T06:25:47.964Z,7.17
2022-12-05T06:26:21.457Z,6.70
2022-12-05T06:26:56.281Z,6.53
2022-12-05T06:27:30.541Z,7.40
2022-12-05T06:28:02.741Z,7.17
2022-12-05T06:28:37.759Z,6.77
2022-12-05T06:29:10.105Z,7.40
2022-12-05T06:29:42.617Z,6.50
2022-12-05T06:30:18.271Z,6.40
2022-12-05T06:30:50.633Z,6.70
2022-12-05T06:31:24.652Z,6.30
2022-12-05T06:31:59.612Z,7.00
2022-12-05T06:32:31.916Z,6.50
2022-12-05T06:33:04.143Z,6.65
2022-12-05T06:33:38.984Z,6.70
2022-12-05T06:34:13.839Z,6.57
2022-12-05T06:34:48.662Z,5.93
2022-12-05T06:35:20.885Z,6.43
2022-12-05T06:36:02.792Z,7.53
2022-12-05T06:36:37.716Z,7.10
2022-12-05T06:37:09.933Z,6.70
2022-12-05T06:37:45.274Z,7.27
2022-12-05T06:38:17.489Z,6.75
2022-12-05T06:38:49.747Z,6.17
2022-12-05T06:39:24.578Z,7.13
2022-12-05T06:39:57.276Z,6.88
2022-12-05T06:40:29.764Z,7.60
2022-12-05T06:41:07.905Z,6.87
2022-12-05T06:41:40.138Z,7.40
2022-12-05T06:42:12.383Z,7.40
2022-12-05T06:42:47.193Z,6.70
2022-12-05T06:43:19.503Z,6.60
2022-12-05T06:43:56.206Z,6.90
2022-12-05T06:44:33.571Z,6.82
2022-12-05T06:45:07.207Z,7.28
2022-12-05T06:45:42.198Z,7.50
2022-12-05T06:46:16.106Z,6.47
2022-12-05T06:46:51.261Z,6.60
2022-12-05T06:47:23.459Z,7.00
2022-12-05T06:47:55.777Z,6.88
2022-12-05T06:48:30.593Z,6.93
2022-12-05T06:49:02.948Z,7.10
2022-12-05T06:49:40.581Z,6.77
2022-12-05T06:50:12.812Z,6.53
2022-12-05T06:50:49.500Z,6.37
2022-12-05T06:51:24.313Z,7.32
2022-12-05T06:51:56.517Z,6.05
2022-12-05T06:52:31.348Z,7.10
2022-12-05T06:53:03.655Z,6.07
2022-12-05T06:53:35.897Z,6.60
2022-12-05T06:54:10.751Z,7.22
2022-12-05T06:54:43.028Z,7.25
2022-12-05T06:55:15.473Z,6.80
2022-12-05T06:55:59.486Z,6.25
2022-12-05T06:56:31.715Z,7.18
2022-12-05T06:57:04.159Z,6.97
2022-12-05T06:57:39.318Z,6.53
2022-12-05T06:58:11.563Z,6.83
2022-12-05T06:58:45.062Z,6.90
2022-12-05T06:59:20.152Z,6.55
2022-12-05T07:00:12.364Z,7.22
2022-12-05T07:00:59.659Z,6.50
2022-12-05T07:01:42.187Z,6.60
2022-12-05T07:02:14.943Z,7.10
2022-12-05T07:02:50.481Z,7.13
2022-12-05T07:03:22.707Z,7.20
2022-12-05T07:03:54.909Z,6.80
2022-12-05T07:04:29.772Z,7.28
2022-12-05T07:05:05.212Z,7.13
2022-12-05T07:05:37.437Z,7.20
2022-12-05T07:06:12.277Z,6.80
2022-12-05T07:06:50.201Z,7.00
2022-12-05T07:07:25.763Z,7.10
2022-12-05T07:07:58.081Z,6.80
2022-12-05T07:08:30.553Z,6.43
2022-12-05T07:09:06.730Z,7.00
2022-12-05T07:09:51.508Z,7.40
2022-12-05T07:10:26.329Z,7.23
2022-12-05T07:10:58.956Z,6.90
2022-12-05T07:11:31.381Z,6.63
2022-12-05T07:12:06.228Z,6.55
2022-12-05T07:12:38.500Z,6.83
2022-12-05T07:13:14.475Z,7.20
2022-12-05T07:13:50.592Z,6.53
2022-12-05T07:15:17.813Z,6.65
2022-12-05T07:15:50.562Z,8.63
2022-12-05T07:16:23.075Z,10.07
2022-12-05T07:16:58.162Z,15.45
2022-12-05T07:17:30.494Z,9.40
2022-12-05T07:18:02.781Z,7.90
2022-12-05T07:18:37.769Z,7.43
2022-12-05T07:19:10.311Z,7.18
2022-12-05T07:19:42.562Z,9.20
2022-12-05T07:20:20.844Z,7.20
2022-12-05T07:21:15.274Z,7.05
2022-12-05T07:21:50.877Z,7.15
2022-12-05T07:22:23.726Z,6.90
2022-12-05T07:22:55.931Z,6.40
2022-12-05T07:23:30.918Z,6.65
2022-12-05T07:24:03.192Z,7.00
2022-12-05T07:24:35.410Z,6.55
2022-12-05T07:25:10.905Z,7.20
2022-12-05T07:25:43.165Z,7.25
2022-12-05T07:26:17.062Z,7.03
2022-12-05T07:26:51.942Z,7.15
2022-12-05T07:27:27.551Z,6.60
2022-12-05T07:28:03.140Z,6.95
2022-12-05T07:28:37.885Z,6.75
2022-12-05T07:29:10.476Z,6.47
2022-12-05T07:29:45.339Z,6.50
2022-12-05T07:30:18.864Z,7.50
2022-12-05T07:31:00.316Z,6.97
2022-12-05T07:31:36.709Z,6.65
2022-12-05T07:32:09.085Z,6.35
2022-12-05T07:32:41.381Z,6.30
2022-12-05T07:33:16.207Z,6.77
2022-12-05T07:33:48.901Z,7.05
2022-12-05T07:34:21.185Z,7.00
2022-12-05T07:34:56.076Z,5.80
2022-12-05T07:35:30.888Z,6.67
2022-12-05T07:36:12.928Z,7.23
2022-12-05T07:36:45.166Z,6.80
2022-12-05T07:37:20.028Z,6.32
2022-12-05T07:37:52.247Z,5.93
2022-12-05T07:38:24.485Z,6.40
2022-12-05T07:39:00.848Z,7.13
2022-12-05T07:39:33.070Z,7.03
2022-12-05T07:40:06.982Z,6.40
2022-12-05T07:40:41.867Z,6.30
2022-12-05T07:41:19.298Z,6.70
2022-12-05T07:41:54.231Z,6.60
2022-12-05T07:42:26.445Z,6.90
2022-12-05T07:43:01.272Z,7.00
2022-12-05T07:43:33.579Z,6.50
2022-12-05T07:44:08.984Z,6.68
2022-12-05T07:44:41.219Z,6.95
2022-12-05T07:45:13.451Z,6.70
2022-12-05T07:45:48.317Z,6.30
2022-12-05T07:46:21.178Z,6.30
2022-12-05T07:46:56.081Z,6.55
2022-12-05T07:47:30.098Z,6.75
2022-12-05T07:48:02.388Z,6.18
2022-12-05T07:48:37.298Z,7.05
2022-12-05T07:49:09.541Z,7.28
2022-12-05T07:49:45.561Z,6.97
2022-12-05T07:50:17.918Z,6.90
2022-12-05T07:50:55.326Z,6.53
2022-12-05T07:51:27.611Z,6.70
2022-12-05T07:52:02.435Z,6.60
2022-12-05T07:52:34.673Z,6.15
2022-12-05T07:53:06.888Z,6.13
2022-12-05T07:53:43.817Z,6.53